Latest Weather Observations for Cape Jaffa

IDS60801

Issued at 11:31 pm CST Friday 29 April 2016 (issued every 30 minutes, with the page automatically refreshed every 10 minutes)

About weather observations | Map of weather stations | Latest weather observations for SA | Other Formats
Station Details ID: 026095 Name: THE LIMESTONE Lat: -36.97 Lon: 139.72 Height: 17.0 m
Data from the previous 72 hours. | See also: Recent months at Cape Jaffa
Date/Time
CST
Temp
°C
App
Temp
°C
Dew
Point
Rel
Hum
%
Delta-T
°C
Wind Press
QNH
hPa
Press
MSL
hPa
Rain
since 9 am
mm
Dir
 
Spd
km/h
Gust
km/h
Spd
kts
Gust
kts
29/11:30pm 13.8 13.2 12.2 90 0.9 NNE 7 15 4 8 1011.3 1011.2 0.6
29/11:00pm 14.5 14.3 13.0 91 0.8 NNE 6 7 3 4 1011.4 1011.3 0.6
29/10:30pm 14.5 13.7 12.9 90 0.9 NNE 9 11 5 6 1011.7 1011.6 0.6
29/10:00pm 15.3 13.7 12.8 85 1.4 N 13 17 7 9 1011.9 1011.8 0.6
29/09:30pm 15.3 13.9 13.3 88 1.1 N 13 15 7 8 1012.0 1011.9 0.6
29/09:00pm 15.4 14.0 13.4 88 1.1 N 13 17 7 9 1012.1 1012.0 0.6
29/08:30pm 14.9 13.4 13.1 89 1.0 N 13 15 7 8 1011.9 1011.8 0.6
29/08:00pm 15.4 14.4 13.4 88 1.1 N 11 15 6 8 1011.8 1011.7 0.6
29/07:30pm 15.6 14.6 13.4 87 1.2 N 11 15 6 8 1011.7 1011.6 0.6
29/07:00pm 16.0 14.3 13.5 85 1.4 N 15 19 8 10 1011.5 1011.4 0.6
29/06:30pm 15.7 13.9 13.4 86 1.3 N 15 19 8 10 1011.3 1011.2 0.6
29/06:00pm 15.5 14.0 13.2 86 1.3 N 13 17 7 9 1011.3 1011.2 0.6
29/05:30pm 15.8 14.0 13.3 85 1.4 N 15 19 8 10 1011.2 1011.1 0.6
29/05:00pm 16.6 15.2 13.5 82 1.7 N 13 17 7 9 1011.1 1011.0 0.6
29/04:30pm 17.2 15.3 14.1 82 1.8 N 17 22 9 12 1011.1 1011.0 0.6
29/04:00pm 17.5 15.5 13.8 79 2.1 N 17 22 9 12 1010.9 1010.8 0.6
29/03:30pm 17.8 15.3 14.1 79 2.1 N 20 28 11 15 1011.0 1010.9 0.6
29/03:00pm 18.2 16.1 15.1 82 1.8 NNW 20 26 11 14 1010.8 1010.7 0.6
29/02:30pm 18.0 15.8 14.5 80 2.0 NNW 19 24 10 13 1010.5 1010.4 0.6
29/02:00pm 17.6 15.2 14.3 81 1.9 NNW 20 26 11 14 1010.6 1010.5 0.6
29/01:30pm 17.3 14.4 14.0 81 1.9 NNW 22 26 12 14 1010.6 1010.5 0.6
29/01:00pm 17.1 14.3 14.2 83 1.7 NNW 22 30 12 16 1010.8 1010.7 0.6
29/12:30pm 17.2 13.1 13.9 81 1.9 N 28 37 15 20 1010.9 1010.8 0.6
29/12:00pm 17.3 14.3 14.8 85 1.4 N 24 33 13 18 1011.2 1011.1 0.6
29/11:30am 16.9 14.1 14.4 85 1.4 NNW 22 30 12 16 1011.3 1011.2 0.6
29/11:00am 16.6 13.5 14.4 87 1.3 N 24 32 13 17 1011.5 1011.4 0.6
29/10:30am 15.7 12.4 14.1 90 0.9 N 24 30 13 16 1011.4 1011.3 0.6
29/10:00am 15.2 12.6 13.7 91 0.8 N 20 28 11 15 1011.6 1011.5 0.6
29/09:30am 15.0 12.9 13.5 91 0.8 NNW 17 24 9 13 1012.1 1012.0 0.4
29/09:00am 14.7 12.0 12.9 89 1.0 NNW 19 26 10 14 1012.2 1012.1 8.4
29/08:30am 15.0 13.5 13.0 88 1.1 NNW 13 19 7 10 1011.9 1011.8 7.6
29/08:00am 15.2 11.3 12.2 82 1.6 NW 24 32 13 17 1012.4 1012.3 6.6
29/07:30am 16.2 12.1 13.9 86 1.3 NNW 28 37 15 20 1012.2 1012.1 5.8
29/07:00am 16.5 13.5 13.8 84 1.5 N 22 32 12 17 1011.1 1011.0 5.2
29/06:30am 16.4 13.5 13.9 85 1.4 N 22 30 12 16 1011.2 1011.1 5.0
29/06:00am 16.6 13.0 14.2 86 1.4 N 26 32 14 17 1011.0 1010.9 4.8
29/05:30am 16.8 13.2 14.3 85 1.4 N 26 32 14 17 1011.2 1011.1 4.6
29/05:00am 16.9 13.0 13.4 80 2.0 N 26 39 14 21 1011.2 1011.1 4.4
29/04:30am 17.8 13.5 13.1 74 2.6 N 28 37 15 20 1011.0 1010.9 4.0
29/04:00am 17.8 13.8 13.1 74 2.6 N 26 35 14 19 1010.4 1010.3 4.0
29/03:30am 18.0 13.3 13.3 74 2.7 N 30 37 16 20 1010.3 1010.2 3.8
29/03:00am 18.0 13.7 13.1 73 2.8 N 28 43 15 23 1010.0 1009.9 3.8
29/02:30am 18.2 13.2 12.2 68 3.3 N 30 39 16 21 1010.1 1010.0 3.8
29/02:00am 17.8 14.0 12.5 71 2.9 NNE 24 35 13 19 1010.5 1010.4 3.8
29/01:30am 18.0 15.0 12.7 71 3.0 NE 20 26 11 14 1009.5 1009.4 3.6
29/01:00am 18.2 15.3 12.9 71 3.0 NE 20 26 11 14 1010.2 1010.1 3.4
29/12:30am 17.6 13.7 13.3 76 2.4 NE 26 32 14 17 1010.0 1009.9 3.4
29/12:00am 17.1 14.1 13.6 80 2.0 NE 22 28 12 15 1010.3 1010.2 3.4
 
Date/Time
CST
Temp
°C
App
Temp
°C
Dew
Point
Rel
Hum
%
Delta-T
°C
Wind Press
QNH
hPa
Press
MSL
hPa
Rain
since 9 am
mm
Dir
 
Spd
km/h
Gust
km/h
Spd
kts
Gust
kts
28/11:30pm 17.1 13.4 13.8 81 1.9 NE 26 32 14 17 1010.6 1010.5 3.4
28/11:00pm 17.3 13.8 14.4 83 1.7 NE 26 33 14 18 1011.3 1011.2 3.4
28/10:30pm 17.2 14.2 14.7 85 1.4 NE 24 33 13 18 1012.2 1012.1 3.4
28/10:00pm 16.7 14.6 14.7 88 1.2 NE 19 26 10 14 1012.7 1012.6 3.4
28/09:30pm 16.6 15.3 14.8 89 1.0 NE 15 19 8 10 1013.9 1013.8 2.8
28/09:00pm 16.5 14.2 14.7 89 1.0 ENE 20 26 11 14 1013.3 1013.2 2.8
28/08:30pm 16.4 14.8 14.9 91 0.9 ENE 17 20 9 11 1013.7 1013.6 2.8
28/08:00pm 16.6 16.9 15.0 90 0.9 NNE 7 11 4 6 1014.8 1014.7 2.4
28/07:30pm 16.4 15.5 14.8 90 0.9 ENE 13 17 7 9 1013.6 1013.5 1.8
28/07:00pm 15.5 14.3 13.9 90 0.9 E 13 15 7 8 1013.6 1013.5 1.8
28/06:30pm 15.7 15.9 14.1 90 0.9 SE 6 9 3 5 1014.5 1014.4 1.6
28/06:00pm 15.9 16.7 13.7 87 1.2 WSW 2 4 1 2 1015.1 1015.1 1.2
28/05:30pm 16.2 16.2 13.7 85 1.4 W 6 7 3 4 1014.7 1014.6 0.8
28/05:00pm 17.0 16.5 12.5 75 2.5 NNW 7 9 4 5 1014.2 1014.1 0.0
28/04:30pm 18.0 17.3 13.1 73 2.8 NE 9 11 5 6 1014.1 1014.0 0.0
28/04:00pm 18.0 17.3 13.1 73 2.8 NE 9 13 5 7 1014.1 1014.0 0.0
28/03:30pm 17.7 16.9 12.8 73 2.7 NNE 9 13 5 7 1014.8 1014.7 0.0
28/03:00pm 17.5 16.8 13.2 76 2.4 NNE 9 13 5 7 1015.1 1015.1 0.0
28/02:30pm 17.7 16.8 13.6 77 2.3 NNE 11 15 6 8 1015.2 1015.2 0.0
28/02:00pm 17.5 17.1 14.0 80 2.0 N 9 13 5 7 1015.6 1015.6 0.0
28/01:30pm 17.5 16.8 14.2 81 1.9 N 11 13 6 7 1016.3 1016.3 0.0
28/01:00pm 19.3 18.2 11.8 62 4.1 NNW 9 15 5 8 1016.7 1016.7 0.0
28/12:30pm 19.5 19.2 13.4 68 3.5 NW 7 13 4 7 1016.9 1016.9 0.0
28/12:00pm 18.1 17.6 13.8 76 2.4 W 9 13 5 7 1017.2 1017.2 0.0
28/11:30am 18.2 17.9 14.5 79 2.1 W 9 11 5 6 1017.4 1017.4 0.0
28/11:00am 17.8 17.6 13.5 76 2.4 WNW 7 11 4 6 1017.5 1017.5 0.0
28/10:30am 17.7 17.3 14.2 80 2.0 W 9 13 5 7 1017.5 1017.5 0.0
28/10:00am 17.3 16.6 14.4 83 1.7 W 11 17 6 9 1017.6 1017.6 0.0
28/09:30am 16.8 16.5 14.3 85 1.4 WNW 9 11 5 6 1017.8 1017.8 0.0
28/09:00am 16.6 16.5 13.9 84 1.5 WNW 7 9 4 5 1017.6 1017.6 1.2
28/08:30am 16.3 16.8 14.1 87 1.2 N 4 6 2 3 1017.9 1017.9 1.2
28/08:00am 15.9 16.4 14.1 89 1.0 NW 4 6 2 3 1017.6 1017.6 1.0
28/07:30am 15.4 15.8 13.8 90 0.9 NNW 4 6 2 3 1017.2 1017.2 1.0
28/07:00am 15.4 15.5 13.9 91 0.8 NW 6 7 3 4 1016.5 1016.5 1.0
28/06:30am 15.6 16.1 14.1 91 0.8 WNW 4 6 2 3 1016.3 1016.3 1.0
28/06:00am 15.6 15.8 14.3 92 0.7 NW 6 6 3 3 1016.3 1016.3 1.0
28/05:30am 15.9 16.2 14.4 91 0.9 WNW 6 7 3 4 1016.1 1016.1 1.0
28/05:00am 16.0 16.1 14.4 90 0.9 WNW 7 11 4 6 1015.9 1015.9 1.0
28/04:30am 16.1 16.2 14.5 90 0.9 WNW 7 9 4 5 1015.6 1015.6 1.0
28/04:00am 16.3 16.6 14.5 89 1.0 WNW 6 7 3 4 1015.4 1015.4 0.8
28/03:30am 16.3 15.9 14.1 87 1.2 WSW 9 11 5 6 1015.3 1015.3 0.8
28/03:00am 16.1 16.1 14.1 88 1.1 WSW 7 9 4 5 1014.9 1014.8 0.8
28/02:30am 16.1 15.7 14.1 88 1.1 SW 9 11 5 6 1014.7 1014.6 0.8
28/02:00am 16.4 15.8 14.6 89 1.0 WSW 11 15 6 8 1014.8 1014.7 0.8
28/01:30am 16.5 15.2 14.9 90 0.9 WSW 15 22 8 12 1014.6 1014.5 0.8
28/01:00am 16.4 14.7 14.8 90 0.9 WSW 17 20 9 11 1014.6 1014.5 0.8
28/12:30am 15.6 14.8 14.0 90 0.9 WSW 11 13 6 7 1014.1 1014.0 0.8
28/12:00am 15.9 15.9 14.3 90 0.9 WSW 7 9 4 5 1013.8 1013.7 0.8
 
Date/Time
CST
Temp
°C
App
Temp
°C
Dew
Point
Rel
Hum
%
Delta-T
°C
Wind Press
QNH
hPa
Press
MSL
hPa
Rain
since 9 am
mm
Dir
 
Spd
km/h
Gust
km/h
Spd
kts
Gust
kts
27/11:30pm 16.3 16.3 14.3 88 1.1 SW 7 11 4 6 1013.5 1013.4 0.8
27/11:00pm 16.3 16.8 14.1 87 1.2 WSW 4 4 2 2 1013.6 1013.5 0.8
27/10:30pm 16.2 16.2 13.7 85 1.4 SSE 6 9 3 5 1013.3 1013.2 0.8
27/10:00pm 16.9 17.1 14.2 84 1.5 NW 6 9 3 5 1014.1 1014.0 0.8
27/09:30pm 17.4 16.2 14.1 81 1.9 WSW 13 17 7 9 1013.5 1013.4 0.8
27/09:00pm 17.4 16.5 13.7 79 2.1 WSW 11 15 6 8 1013.1 1013.0 0.8
27/08:30pm 17.8 17.2 13.5 76 2.4 W 9 11 5 6 1013.1 1013.0 0.8
27/08:00pm 18.6 17.6 12.4 67 3.5 WNW 9 11 5 6 1013.0 1012.9 0.8
27/07:30pm 18.4 16.9 11.9 66 3.6 NW 11 15 6 8 1013.0 1012.9 0.8
27/07:00pm 18.7 16.9 12.0 65 3.7 N 13 17 7 9 1012.5 1012.4 0.8
27/06:30pm 17.4 16.9 12.7 74 2.6 N 7 9 4 5 1012.8 1012.7 0.8
27/06:00pm 17.6 16.5 11.9 69 3.1 NNW 9 13 5 7 1012.5 1012.4 0.6
27/05:30pm 18.9 16.1 11.2 61 4.2 NW 17 22 9 12 1012.4 1012.3 0.2
27/05:00pm 18.4 13.5 12.4 68 3.3 NNW 30 37 16 20 1012.3 1012.2 0.0
27/04:30pm 18.6 15.6 12.6 68 3.4 N 20 24 11 13 1012.1 1012.0 0.0
27/04:00pm 19.9 17.3 11.9 60 4.4 N 17 22 9 12 1011.6 1011.5 0.0
27/03:30pm 20.3 16.9 11.2 56 5.0 N 20 26 11 14 1011.5 1011.4 0.0
27/03:00pm 21.3 16.6 10.8 51 5.8 N 26 32 14 17 1011.5 1011.4 0.0
27/02:30pm 20.9 17.1 11.0 53 5.4 NNW 22 30 12 16 1011.4 1011.3 0.0
27/02:00pm 21.5 16.4 10.6 50 6.0 N 28 35 15 19 1011.5 1011.4 0.0
27/01:30pm 20.6 16.0 11.0 54 5.3 N 26 33 14 18 1011.4 1011.3 0.0
27/01:00pm 20.5 16.2 10.9 54 5.3 N 24 33 13 18 1011.5 1011.4 0.0
27/12:30pm 20.9 16.0 10.1 50 5.8 N 26 37 14 20 1011.7 1011.6 0.0
27/12:00pm 20.9 15.2 9.8 49 6.0 N 30 37 16 20 1012.0 1011.9 0.0
27/11:30am 21.5 15.2 9.7 47 6.4 N 33 44 18 24 1012.0 1011.9 0.0
27/11:00am 21.2 14.7 9.1 46 6.4 N 33 43 18 23 1012.3 1012.2 0.0
27/10:30am 20.8 14.4 9.4 48 6.1 N 33 43 18 23 1012.5 1012.4 0.0
27/10:00am 20.6 13.6 8.6 46 6.3 N 35 44 19 24 1012.6 1012.5 0.0
27/09:30am 20.4 13.4 8.4 46 6.3 NNE 35 48 19 26 1012.7 1012.6 0.0
27/09:00am 19.6 12.6 8.6 49 5.7 N 35 48 19 26 1012.9 1012.8 0.0
27/08:30am 19.3 12.3 8.6 50 5.6 N 35 43 19 23 1013.0 1012.9 0.0
27/08:00am 19.0 11.7 8.6 51 5.4 NNE 37 46 20 25 1013.0 1012.9 0.0
27/07:30am 18.9 11.6 8.6 51 5.3 N 37 46 20 25 1013.1 1013.0 0.0
27/07:00am 19.0 11.6 8.4 50 5.5 NNE 37 50 20 27 1012.8 1012.7 0.0
27/06:30am 18.9 12.2 8.3 50 5.5 NNE 33 43 18 23 1012.8 1012.7 0.0
27/06:00am 18.7 12.0 8.1 50 5.4 NNE 33 43 18 23 1012.8 1012.7 0.0
27/05:30am 18.6 11.5 8.0 50 5.4 NNE 35 43 19 23 1012.8 1012.7 0.0
27/05:00am 18.4 11.9 8.1 51 5.3 NNE 32 44 17 24 1012.9 1012.8 0.0
27/04:30am 18.6 11.8 7.7 49 5.6 NNE 33 41 18 22 1013.1 1013.0 0.0
27/04:00am 18.8 11.4 6.9 46 6.0 NNE 35 46 19 25 1012.9 1012.8 0.0
27/03:30am 18.6 11.7 7.1 47 5.8 NNE 33 43 18 23 1013.2 1013.1 0.0
27/03:00am 19.1 11.9 7.5 47 5.9 NNE 35 44 19 24 1013.4 1013.3 0.0
27/02:30am 19.0 12.2 7.8 48 5.7 NNE 33 43 18 23 1013.8 1013.7 0.0
27/02:00am 18.8 12.6 7.9 49 5.6 NNE 30 39 16 21 1014.1 1014.0 0.0
27/01:30am 18.7 12.0 7.2 47 5.8 NNE 32 39 17 21 1014.3 1014.2 0.0
27/01:00am 18.7 12.4 7.2 47 5.8 NNE 30 35 16 19 1014.5 1014.4 0.0
27/12:30am 18.6 12.3 7.4 48 5.7 NNE 30 37 16 20 1014.5 1014.4 0.0
27/12:00am 18.3 12.6 8.3 52 5.1 NNE 28 37 15 20 1014.9 1014.8 0.0

Other Formats:

Comma delimited format used in spreadsheet applications
http://www.bom.gov.au/fwo/IDS60801/IDS60801.94813.axf

JavaScript Object Notation format (JSON) in row-major order
http://www.bom.gov.au/fwo/IDS60801/IDS60801.94813.json